createdAt,value
2022-10-05T00:01:33.931Z,10.80
2022-10-05T00:04:14.618Z,10.80
2022-10-05T00:06:47.691Z,10.70
2022-10-05T00:09:20.106Z,10.70
2022-10-05T00:11:47.866Z,10.60
2022-10-05T00:14:19.223Z,10.70
2022-10-05T00:16:46.591Z,10.60
2022-10-05T00:19:33.239Z,10.60
2022-10-05T00:24:59.425Z,10.50
2022-10-05T00:30:21.215Z,10.60
2022-10-05T00:35:35.920Z,10.50
2022-10-05T00:40:55.379Z,10.50
2022-10-05T00:43:45.959Z,10.50
2022-10-05T00:46:44.965Z,10.60
2022-10-05T00:49:49.107Z,10.60
2022-10-05T00:52:21.910Z,10.60
2022-10-05T00:55:10.394Z,10.60
2022-10-05T00:57:56.367Z,10.60
2022-10-05T01:00:26.087Z,10.70
2022-10-05T01:03:08.920Z,10.70
2022-10-05T01:05:45.023Z,10.80
2022-10-05T01:08:40.448Z,10.80
2022-10-05T01:11:18.820Z,10.80
2022-10-05T01:13:58.700Z,10.90
2022-10-05T01:16:35.847Z,10.80
2022-10-05T01:22:01.474Z,10.90
2022-10-05T01:24:49.665Z,10.90
2022-10-05T01:27:39.137Z,10.90
2022-10-05T01:30:12.245Z,10.90
2022-10-05T01:35:47.361Z,11.00
2022-10-05T01:38:29.478Z,11.00
2022-10-05T01:41:19.282Z,11.10
2022-10-05T01:43:54.762Z,11.10
2022-10-05T01:46:33.675Z,11.10
2022-10-05T01:49:09.234Z,11.10
2022-10-05T01:52:11.286Z,11.10
2022-10-05T01:55:02.794Z,11.10
2022-10-05T01:57:44.280Z,11.10
2022-10-05T02:00:16.991Z,11.10
2022-10-05T02:02:51.795Z,11.20
2022-10-05T02:05:21.481Z,11.20
2022-10-05T02:08:01.760Z,11.30
2022-10-05T02:10:36.395Z,11.40
2022-10-05T02:13:24.375Z,11.40
2022-10-05T02:16:03.252Z,11.40
2022-10-05T02:18:40.559Z,11.50
2022-10-05T02:21:08.596Z,11.50
2022-10-05T02:23:39.597Z,11.50
2022-10-05T02:26:08.988Z,11.50
2022-10-05T02:29:14.920Z,11.60
2022-10-05T02:31:48.933Z,11.50
2022-10-05T02:34:28.112Z,11.60
2022-10-05T02:37:12.503Z,11.60
2022-10-05T02:39:47.451Z,11.60
2022-10-05T02:42:33.396Z,11.60
2022-10-05T02:45:37.242Z,11.60
2022-10-05T02:48:12.001Z,11.70
2022-10-05T02:50:41.536Z,11.70
2022-10-05T02:53:17.070Z,11.70
2022-10-05T02:55:58.469Z,11.80
2022-10-05T02:58:28.473Z,11.70
2022-10-05T03:01:13.915Z,11.70
2022-10-05T03:03:51.376Z,11.70
2022-10-05T03:06:26.986Z,11.70
2022-10-05T03:09:08.196Z,11.70
2022-10-05T03:11:46.948Z,11.70
2022-10-05T03:14:25.840Z,11.70
2022-10-05T03:17:06.822Z,11.70
2022-10-05T03:19:54.713Z,11.70
2022-10-05T03:22:52.271Z,11.70
2022-10-05T03:25:49.366Z,11.70
2022-10-05T03:31:17.220Z,11.70
2022-10-05T03:33:55.182Z,11.70
2022-10-05T03:36:44.497Z,11.60
2022-10-05T03:39:20.376Z,11.60
2022-10-05T03:41:49.831Z,11.60
2022-10-05T03:44:34.835Z,11.60
2022-10-05T03:50:43.529Z,11.60
2022-10-05T03:53:27.348Z,11.60
2022-10-05T03:56:16.404Z,11.60
2022-10-05T03:58:50.110Z,11.60
2022-10-05T04:01:22.101Z,11.60
2022-10-05T04:03:54.015Z,11.50
2022-10-05T04:06:48.492Z,11.60
2022-10-05T04:09:36.338Z,11.50
2022-10-05T04:12:08.817Z,11.60
2022-10-05T04:17:34.026Z,11.50
2022-10-05T04:26:09.517Z,11.60
2022-10-05T04:28:54.298Z,11.60
2022-10-05T04:31:41.958Z,11.60
2022-10-05T04:34:37.458Z,11.50
2022-10-05T04:37:09.315Z,11.50
2022-10-05T04:39:56.710Z,11.60
2022-10-05T04:43:04.544Z,11.50
2022-10-05T04:46:13.060Z,11.50
2022-10-05T04:51:37.995Z,11.50
2022-10-05T04:54:43.827Z,11.50
2022-10-05T04:57:31.627Z,11.40
2022-10-05T05:06:49.545Z,11.30
2022-10-05T05:09:22.331Z,11.40
2022-10-05T05:12:07.556Z,11.40
2022-10-05T05:14:49.079Z,11.30
2022-10-05T05:17:31.249Z,11.30
2022-10-05T05:20:16.438Z,11.30
2022-10-05T05:22:55.343Z,11.20
2022-10-05T05:25:40.077Z,11.20
2022-10-05T05:28:27.390Z,11.30
2022-10-05T05:31:04.453Z,11.20
2022-10-05T05:33:43.347Z,11.30
2022-10-05T05:42:38.125Z,11.30
2022-10-05T05:45:31.398Z,11.40
2022-10-05T05:48:00.874Z,11.40
2022-10-05T05:50:42.628Z,11.40
2022-10-05T05:56:32.543Z,11.40
2022-10-05T05:59:12.146Z,11.50
2022-10-05T06:02:04.413Z,11.50
2022-10-05T06:04:54.691Z,11.60
2022-10-05T06:07:30.201Z,11.60
2022-10-05T06:10:20.134Z,11.60
2022-10-05T06:12:50.301Z,11.60
2022-10-05T06:15:32.544Z,11.70
2022-10-05T06:18:26.068Z,11.70
2022-10-05T06:21:18.920Z,11.80
2022-10-05T06:23:52.894Z,11.80
2022-10-05T06:26:31.698Z,11.80
2022-10-05T06:29:03.991Z,11.90
2022-10-05T06:31:58.705Z,11.90
2022-10-05T06:34:55.861Z,12.00
2022-10-05T06:40:59.983Z,12.00
2022-10-05T06:43:38.027Z,12.10
2022-10-05T06:46:18.363Z,12.00
2022-10-05T06:55:41.658Z,12.20
2022-10-05T06:58:26.209Z,12.20
2022-10-05T07:04:06.975Z,12.20
2022-10-05T07:06:42.782Z,12.20
2022-10-05T07:09:21.831Z,12.20
2022-10-05T07:12:29.697Z,12.30
2022-10-05T07:15:25.496Z,12.30
2022-10-05T07:17:58.009Z,12.40
2022-10-05T07:20:46.816Z,12.40
2022-10-05T07:23:27.721Z,12.40
2022-10-05T07:26:03.712Z,12.50
2022-10-05T07:29:02.254Z,12.60
2022-10-05T07:31:34.163Z,12.80
2022-10-05T07:34:09.825Z,12.80
2022-10-05T07:36:44.905Z,12.80
2022-10-05T07:39:23.554Z,13.10
2022-10-05T07:41:57.628Z,13.00
2022-10-05T07:50:37.420Z,13.30
2022-10-05T07:53:17.646Z,13.30
2022-10-05T07:55:55.745Z,13.50
2022-10-05T07:58:34.450Z,13.70
2022-10-05T08:01:22.743Z,13.90
2022-10-05T08:03:52.084Z,13.90
2022-10-05T08:06:47.027Z,14.10
2022-10-05T08:09:32.670Z,14.10
2022-10-05T08:12:25.793Z,14.10
2022-10-05T08:15:19.851Z,14.20
2022-10-05T08:18:00.191Z,14.00
2022-10-05T08:20:47.339Z,14.10
2022-10-05T08:23:25.119Z,14.10
2022-10-05T08:25:57.428Z,14.20
2022-10-05T08:28:31.141Z,14.20
2022-10-05T08:31:15.759Z,14.20
2022-10-05T08:37:04.921Z,14.40
2022-10-05T08:39:39.779Z,14.40
2022-10-05T08:45:06.134Z,14.40
2022-10-05T08:48:15.114Z,14.30
2022-10-05T08:50:56.656Z,14.50
2022-10-05T08:53:50.741Z,14.60
2022-10-05T08:56:34.461Z,15.00
2022-10-05T09:02:50.372Z,14.80
2022-10-05T09:05:58.063Z,14.90
2022-10-05T09:11:47.756Z,14.70
2022-10-05T09:14:52.602Z,14.60
2022-10-05T09:17:32.358Z,14.80
2022-10-05T09:20:40.055Z,14.90
2022-10-05T09:23:13.282Z,15.00
2022-10-05T09:25:47.057Z,14.90
2022-10-05T09:28:23.088Z,15.00
2022-10-05T09:34:28.764Z,15.20
2022-10-05T09:37:22.783Z,15.60
2022-10-05T09:40:01.779Z,15.50
2022-10-05T09:42:49.371Z,15.70
2022-10-05T09:45:28.056Z,15.70
2022-10-05T09:48:13.151Z,15.70
2022-10-05T09:51:14.445Z,15.80
2022-10-05T09:54:02.444Z,15.90
2022-10-05T09:57:02.830Z,15.90
2022-10-05T10:02:52.454Z,15.80
2022-10-05T10:05:34.544Z,16.00
2022-10-05T10:08:21.503Z,16.20
2022-10-05T10:10:54.384Z,16.10
2022-10-05T10:13:45.932Z,16.00
2022-10-05T10:16:12.679Z,15.90
2022-10-05T10:18:51.403Z,16.00
2022-10-05T10:21:24.072Z,16.20
2022-10-05T10:23:59.578Z,16.20
2022-10-05T10:26:47.601Z,16.30
2022-10-05T10:29:37.793Z,16.40
2022-10-05T10:35:08.319Z,16.40
2022-10-05T10:37:58.556Z,16.50
2022-10-05T10:40:50.746Z,16.60
2022-10-05T10:43:42.745Z,16.50
2022-10-05T10:46:31.091Z,16.70
2022-10-05T10:49:45.721Z,16.70
2022-10-05T10:52:23.621Z,16.50
2022-10-05T10:55:19.664Z,16.60
2022-10-05T10:58:16.233Z,16.60
2022-10-05T11:01:03.542Z,16.70
2022-10-05T11:06:52.826Z,16.70
2022-10-05T11:09:50.449Z,16.80
2022-10-05T11:12:38.393Z,16.70
2022-10-05T11:16:00.535Z,17.10
2022-10-05T11:18:51.646Z,16.90
2022-10-05T11:21:27.039Z,17.10
2022-10-05T11:24:17.820Z,16.80
2022-10-05T11:26:47.727Z,16.60
2022-10-05T11:32:28.404Z,16.60
2022-10-05T11:35:18.933Z,16.60
2022-10-05T11:37:48.480Z,16.80
2022-10-05T11:40:36.733Z,16.90
2022-10-05T11:43:35.665Z,17.00
2022-10-05T11:46:41.745Z,16.90
2022-10-05T11:49:26.384Z,16.90
2022-10-05T11:52:15.398Z,16.90
2022-10-05T11:55:12.763Z,16.90
2022-10-05T11:57:58.404Z,16.90
2022-10-05T12:00:48.448Z,17.00
2022-10-05T12:03:22.911Z,17.00
2022-10-05T12:05:55.871Z,17.00
2022-10-05T12:09:05.169Z,16.90
2022-10-05T12:11:43.299Z,16.80
2022-10-05T12:14:36.249Z,17.00
2022-10-05T12:17:18.002Z,17.30
2022-10-05T12:19:51.402Z,17.10
2022-10-05T12:22:36.760Z,17.20
2022-10-05T12:25:26.655Z,17.00
2022-10-05T12:27:58.431Z,17.10
2022-10-05T12:31:00.767Z,16.80
2022-10-05T12:33:40.927Z,16.80
2022-10-05T12:36:19.554Z,16.70
2022-10-05T12:38:53.059Z,16.70
2022-10-05T12:41:35.450Z,16.90
2022-10-05T12:48:05.201Z,16.60
2022-10-05T12:50:40.058Z,16.70
2022-10-05T12:53:06.771Z,16.90
2022-10-05T12:56:00.847Z,17.00
2022-10-05T12:59:05.933Z,17.10
2022-10-05T13:01:47.069Z,17.20
2022-10-05T13:04:30.763Z,17.20
2022-10-05T13:07:21.805Z,17.00
2022-10-05T13:16:15.188Z,17.10
2022-10-05T13:18:49.347Z,17.00
2022-10-05T13:21:55.213Z,17.20
2022-10-05T13:24:35.016Z,17.30
2022-10-05T13:27:22.346Z,17.70
2022-10-05T13:30:02.770Z,17.40
2022-10-05T13:32:40.692Z,17.10
2022-10-05T13:35:27.827Z,17.10
2022-10-05T13:38:07.961Z,17.20
2022-10-05T13:41:10.335Z,17.20
2022-10-05T13:44:12.651Z,17.30
2022-10-05T13:46:44.516Z,17.20
2022-10-05T13:52:28.619Z,17.20
2022-10-05T13:55:17.515Z,17.10
2022-10-05T13:58:05.437Z,17.10
2022-10-05T14:00:37.518Z,17.20
2022-10-05T14:03:23.486Z,16.90
2022-10-05T14:05:59.079Z,17.00
2022-10-05T14:08:29.073Z,17.00
2022-10-05T14:10:56.315Z,17.20
2022-10-05T14:13:45.726Z,17.10
2022-10-05T14:16:12.464Z,17.20
2022-10-05T14:19:10.002Z,17.10
2022-10-05T14:22:03.389Z,17.30
2022-10-05T14:24:44.757Z,17.10
2022-10-05T14:27:20.933Z,17.20
2022-10-05T14:30:13.091Z,17.00
2022-10-05T14:32:58.511Z,17.10
2022-10-05T14:35:50.653Z,17.00
2022-10-05T14:41:36.721Z,17.00
2022-10-05T14:44:09.447Z,17.00
2022-10-05T14:46:37.357Z,17.00
2022-10-05T14:58:58.051Z,16.90
2022-10-05T15:01:30.190Z,16.80
2022-10-05T15:04:25.955Z,16.80
2022-10-05T15:07:34.057Z,16.70
2022-10-05T15:10:19.529Z,16.70
2022-10-05T15:12:48.119Z,16.70
2022-10-05T15:15:24.762Z,16.50
2022-10-05T15:17:57.659Z,16.50
2022-10-05T15:20:40.830Z,16.50
2022-10-05T15:23:19.888Z,16.40
2022-10-05T15:26:21.620Z,16.40
2022-10-05T15:29:18.450Z,16.40
2022-10-05T15:31:51.276Z,16.30
2022-10-05T15:34:23.509Z,16.30
2022-10-05T15:37:08.243Z,16.20
2022-10-05T15:40:04.982Z,16.20
2022-10-05T15:42:40.031Z,16.10
2022-10-05T15:48:14.804Z,16.20
2022-10-05T15:50:49.333Z,16.10
2022-10-05T15:53:25.346Z,16.00
2022-10-05T15:56:13.257Z,16.00
2022-10-05T15:59:04.047Z,16.00
2022-10-05T16:01:33.928Z,15.90
2022-10-05T16:07:17.311Z,15.80
2022-10-05T16:09:55.700Z,15.90
2022-10-05T16:12:34.214Z,15.70
2022-10-05T16:15:30.506Z,15.70
2022-10-05T16:18:21.646Z,15.70
2022-10-05T16:24:22.629Z,15.60
2022-10-05T16:27:08.940Z,15.50
2022-10-05T16:30:05.991Z,15.50
2022-10-05T16:33:09.397Z,15.50
2022-10-05T16:35:39.187Z,15.50
2022-10-05T16:38:32.525Z,15.40
2022-10-05T16:44:16.615Z,15.40
2022-10-05T16:46:55.983Z,15.40
2022-10-05T16:50:02.736Z,15.40
2022-10-05T16:52:30.693Z,15.30
2022-10-05T16:55:12.212Z,15.20
2022-10-05T16:57:47.635Z,15.10
2022-10-05T17:00:39.389Z,15.00
2022-10-05T17:03:18.145Z,15.00
2022-10-05T17:06:10.811Z,15.00
2022-10-05T17:09:14.807Z,14.90
2022-10-05T17:14:58.913Z,14.90
2022-10-05T17:17:46.544Z,14.80
2022-10-05T17:20:32.096Z,14.80
2022-10-05T17:23:17.775Z,14.70
2022-10-05T17:26:21.550Z,14.70
2022-10-05T17:29:15.311Z,14.60
2022-10-05T17:32:10.930Z,14.50
2022-10-05T17:34:39.950Z,14.40
2022-10-05T17:37:18.840Z,14.40
2022-10-05T17:39:52.381Z,14.30
2022-10-05T17:45:20.921Z,14.20
2022-10-05T17:48:08.691Z,14.10
2022-10-05T17:50:48.280Z,14.10
2022-10-05T17:53:36.271Z,14.00
2022-10-05T17:56:04.755Z,13.90
2022-10-05T17:58:31.470Z,13.90
2022-10-05T18:00:58.130Z,13.90
2022-10-05T18:10:12.856Z,13.70
2022-10-05T18:12:45.099Z,13.70
2022-10-05T18:15:36.518Z,13.60
2022-10-05T18:21:29.026Z,13.50
2022-10-05T18:26:45.128Z,13.40
2022-10-05T18:29:23.705Z,13.40
2022-10-05T18:32:00.511Z,13.40
2022-10-05T18:35:01.855Z,13.40
2022-10-05T18:38:10.435Z,13.40
2022-10-05T18:41:05.233Z,13.40
2022-10-05T18:44:07.520Z,13.30
2022-10-05T18:46:34.266Z,13.30
2022-10-05T18:49:07.142Z,13.30
2022-10-05T18:51:40.492Z,13.40
2022-10-05T18:57:45.483Z,13.40
2022-10-05T19:00:21.369Z,13.30
2022-10-05T19:03:03.381Z,13.30
2022-10-05T19:05:48.981Z,13.40
2022-10-05T19:08:21.715Z,13.40
2022-10-05T19:14:14.243Z,13.60
2022-10-05T19:17:07.910Z,13.70
2022-10-05T19:20:14.032Z,13.70
2022-10-05T19:22:49.865Z,13.70
2022-10-05T19:25:35.339Z,13.80
2022-10-05T19:28:23.331Z,13.90
2022-10-05T19:30:57.493Z,13.90
2022-10-05T19:33:45.581Z,14.00
2022-10-05T19:36:30.515Z,14.10
2022-10-05T19:39:09.013Z,14.10
2022-10-05T19:45:10.614Z,14.10
2022-10-05T19:48:16.137Z,14.10
2022-10-05T19:50:57.478Z,14.20
2022-10-05T19:56:20.796Z,14.20
2022-10-05T19:58:49.607Z,14.20
2022-10-05T20:01:25.414Z,14.10
2022-10-05T20:06:39.985Z,14.10
2022-10-05T20:09:21.221Z,14.10
2022-10-05T20:11:52.758Z,14.20
2022-10-05T20:14:33.631Z,14.20
2022-10-05T20:17:27.157Z,14.10
2022-10-05T20:19:53.982Z,14.00
2022-10-05T20:22:32.367Z,14.00
2022-10-05T20:27:43.696Z,14.10
2022-10-05T20:30:13.027Z,14.10
2022-10-05T20:35:28.271Z,14.20
2022-10-05T20:40:41.958Z,14.30
2022-10-05T20:45:55.373Z,14.40
2022-10-05T20:51:08.758Z,14.40
2022-10-05T20:53:35.492Z,14.40
2022-10-05T20:56:02.224Z,14.30
2022-10-05T20:58:29.279Z,14.30
2022-10-05T21:00:56.472Z,14.20
2022-10-05T21:03:23.338Z,14.30
2022-10-05T21:05:50.083Z,14.30
2022-10-05T21:08:16.843Z,14.20
2022-10-05T21:10:43.560Z,14.20
2022-10-05T21:13:10.259Z,14.20
2022-10-05T21:15:36.972Z,14.20
2022-10-05T21:18:03.769Z,14.20
2022-10-05T21:20:30.526Z,14.20
2022-10-05T21:22:57.685Z,14.30
2022-10-05T21:28:11.107Z,14.30
2022-10-05T21:33:24.853Z,14.30
2022-10-05T21:35:51.967Z,14.40
2022-10-05T21:38:18.670Z,14.30
2022-10-05T21:40:45.392Z,14.40
2022-10-05T21:43:12.120Z,14.50
2022-10-05T21:45:39.068Z,14.40
2022-10-05T21:48:06.031Z,14.50
2022-10-05T21:50:33.918Z,14.50
2022-10-05T21:53:04.381Z,14.50
2022-10-05T21:55:35.515Z,14.50
2022-10-05T21:58:03.128Z,14.50
2022-10-05T22:00:30.473Z,14.60
2022-10-05T22:02:57.290Z,14.60
2022-10-05T22:05:24.016Z,14.60
2022-10-05T22:10:37.576Z,14.60
2022-10-05T22:15:54.800Z,14.60
2022-10-05T22:21:11.525Z,14.80
2022-10-05T22:23:43.295Z,14.70
2022-10-05T22:26:12.904Z,14.80
2022-10-05T22:28:40.929Z,14.70
2022-10-05T22:31:09.027Z,14.80
2022-10-05T22:33:39.851Z,14.70
2022-10-05T22:36:07.906Z,14.90
2022-10-05T22:38:34.662Z,14.90
2022-10-05T22:41:01.507Z,15.00
2022-10-05T22:43:28.317Z,14.90
2022-10-05T22:45:55.636Z,14.90
2022-10-05T22:48:22.459Z,14.90
2022-10-05T22:50:49.179Z,14.90
2022-10-05T22:56:08.254Z,15.00
2022-10-05T23:01:22.910Z,15.10
2022-10-05T23:03:49.719Z,15.20
2022-10-05T23:09:06.043Z,15.20
2022-10-05T23:14:19.717Z,15.20
2022-10-05T23:16:46.771Z,15.30
2022-10-05T23:19:14.054Z,15.30
2022-10-05T23:21:40.771Z,15.30
2022-10-05T23:24:07.579Z,15.30
2022-10-05T23:26:34.581Z,15.30
2022-10-05T23:29:01.305Z,15.40
2022-10-05T23:31:31.542Z,15.40
2022-10-05T23:33:58.238Z,15.40
2022-10-05T23:36:27.568Z,15.40
2022-10-05T23:38:54.678Z,15.40
2022-10-05T23:41:21.471Z,15.40
2022-10-05T23:43:48.440Z,15.40
2022-10-05T23:46:16.098Z,15.50
2022-10-05T23:48:43.130Z,15.50
2022-10-05T23:51:12.434Z,15.50
2022-10-05T23:53:39.536Z,15.50
2022-10-05T23:56:06.658Z,15.50
2022-10-05T23:58:33.474Z,15.50
